Time;durP1;ratioP1;P1;durP2;ratioP2;P2;SDS_P1;SDS_P2;PMS_P1;PMS_P2;Temp;Humidity;BMP_temperature;BMP_pressure;BME280_temperature;BME280_humidity;BME280_pressure;Samples;Min_cycle;Max_cycle;Signal;HPM_P1;HPM_P2
2022/09/26 08:58:21;;;;;;;27.63;26.13;;;;;;;12.81;100.00;99843.31;4966653;28;20541;-45
2022/09/26 09:00:59;;;;;;;27.17;25.87;;;;;;;12.70;100.00;99836.09;4991690;28;20469;-47
2022/09/26 09:03:31;;;;;;;28.43;27.13;;;;;;;12.64;100.00;99837.00;4992949;28;20473;-46
2022/09/26 09:06:03;;;;;;;28.53;27.10;;;;;;;12.57;100.00;99830.97;4992806;28;20854;-44
2022/09/26 09:08:36;;;;;;;28.53;27.03;;;;;;;12.58;100.00;99838.75;4966941;28;20457;-46
2022/09/26 09:11:13;;;;;;;28.37;26.87;;;;;;;12.55;100.00;99828.53;4992241;28;20446;-44
2022/09/26 09:14:02;;;;;;;28.97;27.37;;;;;;;12.70;100.00;99836.91;4992444;28;20857;-48
2022/09/26 09:16:45;;;;;;;28.40;27.00;;;;;;;12.77;100.00;99836.78;4992567;28;20849;-52
2022/09/26 09:19:24;;;;;;;27.83;26.33;;;;;;;12.66;100.00;99835.72;4961623;28;20517;-49
2022/09/26 09:22:06;;;;;;;27.20;25.90;;;;;;;12.69;100.00;99826.44;4972731;28;20446;-48
2022/09/26 09:24:50;;;;;;;27.63;26.30;;;;;;;12.63;100.00;99824.69;4973298;28;20799;-54
2022/09/26 09:27:27;;;;;;;28.33;27.00;;;;;;;12.62;100.00;99828.41;4972934;28;20931;-49
2022/09/26 09:30:21;;;;;;;28.47;26.40;;;;;;;12.54;100.00;99818.06;4949644;28;20494;-47
2022/09/26 09:32:53;;;;;;;29.53;27.37;;;;;;;12.51;100.00;99819.34;4972763;28;20451;-53
2022/09/26 09:35:35;;;;;;;27.80;26.50;;;;;;;12.46;100.00;99821.06;4972909;28;20882;-49
2022/09/26 09:38:05;;;;;;;28.67;27.10;;;;;;;12.38;100.00;99808.03;4972811;28;20479;-47
2022/09/26 09:40:37;;;;;;;29.10;27.60;;;;;;;12.29;100.00;99810.25;4949701;28;20463;-49
2022/09/26 09:43:12;;;;;;;27.50;26.07;;;;;;;12.31;100.00;99808.13;4972639;28;20525;-48
2022/09/26 09:45:45;;;;;;;28.30;26.90;;;;;;;12.29;100.00;99804.06;4972743;28;20442;-47
2022/09/26 09:48:14;;;;;;;28.47;26.80;;;;;;;12.21;100.00;99791.88;4972705;28;20427;-50
2022/09/26 09:50:56;;;;;;;28.27;26.97;;;;;;;12.21;100.00;99792.66;4949321;28;20486;-49
2022/09/26 09:53:39;;;;;;;29.33;27.77;;;;;;;12.15;100.00;99792.78;4972688;28;20803;-49
2022/09/26 09:56:17;;;;;;;29.43;27.93;;;;;;;12.19;100.00;99785.91;4972866;28;20443;-53
2022/09/26 09:59:02;;;;;;;29.80;28.10;;;;;;;12.23;100.00;99779.09;4972417;28;20534;-51
2022/09/26 10:01:35;;;;;;;28.53;27.10;;;;;;;12.17;100.00;99782.69;4942136;28;20467;-49
2022/09/26 10:04:11;;;;;;;29.07;27.47;;;;;;;12.18;100.00;99769.06;4972539;28;20426;-48
2022/09/26 10:06:40;;;;;;;29.20;27.73;;;;;;;12.19;100.00;99772.56;4972656;28;20478;-48
2022/09/26 10:09:20;;;;;;;30.00;28.40;;;;;;;12.21;100.00;99773.16;4950108;28;20466;-53
2022/09/26 10:12:12;;;;;;;31.33;29.70;;;;;;;12.26;100.00;99765.25;4980809;28;20827;-48
2022/09/26 10:14:45;;;;;;;32.07;30.20;;;;;;;12.29;100.00;99763.97;4972490;28;20501;-50
2022/09/26 10:17:19;;;;;;;30.83;29.10;;;;;;;12.31;100.00;99768.03;4972525;28;20438;-49
2022/09/26 10:19:47;;;;;;;29.13;27.70;;;;;;;12.27;100.00;99758.88;4947519;28;20486;-54
2022/09/26 10:22:24;;;;;;;30.47;28.30;;;;;;;12.21;100.00;99751.78;4983078;28;20540;-50
2022/09/26 10:24:59;;;;;;;29.47;27.80;;;;;;;12.15;100.00;99750.03;4991895;28;20536;-48
2022/09/26 10:27:35;;;;;;;30.03;28.43;;;;;;;12.15;100.00;99747.34;4991739;28;20434;-51
2022/09/26 10:30:08;;;;;;;29.70;28.10;;;;;;;12.09;100.00;99742.94;4966029;28;20488;-51
2022/09/26 10:32:46;;;;;;;31.27;29.47;;;;;;;12.10;100.00;99739.19;4991385;28;20449;-48
2022/09/26 10:35:23;;;;;;;30.60;28.53;;;;;;;12.12;100.00;99745.97;4994961;28;20445;-53
2022/09/26 10:37:59;;;;;;;30.17;28.37;;;;;;;12.17;100.00;99731.91;4995437;28;20795;-51
2022/09/26 10:40:47;;;;;;;29.10;27.50;;;;;;;12.22;100.00;99737.34;4986004;28;20515;-47
2022/09/26 10:43:29;;;;;;;30.37;28.20;;;;;;;12.25;100.00;99722.69;4995084;28;21148;-53
2022/09/26 10:46:03;;;;;;;29.43;27.83;;;;;;;12.26;100.00;99725.16;4995398;28;20503;-46
2022/09/26 10:48:46;;;;;;;29.40;27.90;;;;;;;12.23;100.00;99722.13;4995322;28;20503;-44
2022/09/26 10:51:28;;;;;;;29.30;27.90;;;;;;;12.24;100.00;99721.09;4969174;28;20838;-46
2022/09/26 10:54:02;;;;;;;29.57;28.00;;;;;;;12.22;100.00;99723.97;4995469;28;20537;-43
2022/09/26 10:56:35;;;;;;;29.37;27.87;;;;;;;12.21;100.00;99714.34;4995131;28;20861;-42
2022/09/26 10:59:08;;;;;;;29.70;28.30;;;;;;;12.23;100.00;99709.59;4994873;28;20902;-43
2022/09/26 11:01:41;;;;;;;29.30;27.83;;;;;;;12.21;100.00;99714.34;4968653;28;20481;-43
2022/09/26 11:07:06;;;;;;;29.60;28.00;;;;;;;12.11;100.00;99703.41;4994617;28;20492;-43
2022/09/26 11:09:34;;;;;;;31.30;29.60;;;;;;;12.09;100.00;99705.53;4994696;28;20446;-42
2022/09/26 11:12:24;;;;;;;30.30;28.70;;;;;;;12.13;100.00;99704.81;4968616;28;20485;-45
2022/09/26 11:14:56;;;;;;;30.27;28.77;;;;;;;12.17;100.00;99708.66;4994701;28;20476;-48
2022/09/26 11:17:43;;;;;;;30.80;29.10;;;;;;;12.21;100.00;99696.44;4994705;28;20534;-45
2022/09/26 11:20:20;;;;;;;31.20;29.53;;;;;;;12.22;100.00;99702.59;4971671;28;20473;-43
2022/09/26 11:22:54;;;;;;;31.17;29.47;;;;;;;12.25;100.00;99694.13;4985887;28;20868;-48
2022/09/26 11:25:28;;;;;;;30.83;29.30;;;;;;;12.40;100.00;99696.31;4994625;28;20422;-49
2022/09/26 11:28:05;;;;;;;31.97;30.37;;;;;;;12.44;100.00;99692.97;4994483;28;20441;-43
2022/09/26 11:30:40;;;;;;;31.07;29.20;;;;;;;12.45;100.00;99681.22;4994300;28;20426;-45
2022/09/26 11:33:12;;;;;;;30.73;29.13;;;;;;;12.57;100.00;99687.34;4968170;28;20460;-43
2022/09/26 11:35:48;;;;;;;30.73;29.30;;;;;;;12.71;100.00;99687.91;4994212;28;20473;-48
2022/09/26 11:38:37;;;;;;;32.60;30.60;;;;;;;12.81;100.00;99681.97;4994451;28;21121;-42
2022/09/26 11:41:40;;;;;;;31.87;29.87;;;;;;;12.93;100.00;99678.19;4994098;28;20450;-47
2022/09/26 11:44:30;;;;;;;33.87;31.43;;;;;;;12.84;100.00;99681.50;4968589;28;20449;-45
2022/09/26 11:47:18;;;;;;;32.67;30.90;;;;;;;12.86;100.00;99668.69;4994217;28;20857;-43
2022/09/26 11:50:01;;;;;;;32.10;30.40;;;;;;;12.85;100.00;99677.75;4993805;28;20438;-45
2022/09/26 11:52:47;;;;;;;32.40;30.53;;;;;;;12.86;100.00;99669.50;4966340;28;20454;-45
2022/09/26 11:55:23;;;;;;;32.00;30.40;;;;;;;12.85;100.00;99670.53;4993629;28;20485;-45
2022/09/26 11:58:01;;;;;;;31.37;29.87;;;;;;;12.75;100.00;99663.13;4993818;28;20462;-46
2022/09/26 12:00:41;;;;;;;32.63;30.70;;;;;;;12.71;100.00;99656.63;4993584;28;20477;-45
2022/09/26 12:03:32;;;;;;;34.00;31.83;;;;;;;12.63;100.00;99651.63;4967961;28;20457;-43
2022/09/26 12:06:07;;;;;;;32.60;30.90;;;;;;;12.65;100.00;99648.75;4993615;28;20438;-42
2022/09/26 12:08:56;;;;;;;33.00;31.20;;;;;;;12.67;100.00;99650.13;4993605;28;20479;-49
2022/09/26 12:11:35;;;;;;;32.27;30.67;;;;;;;12.81;100.00;99642.66;4993155;28;20965;-45
2022/09/26 12:14:15;;;;;;;31.53;29.90;;;;;;;12.93;100.00;99639.94;4976855;28;20458;-49
2022/09/26 12:16:53;;;;;;;32.17;30.37;;;;;;;12.94;100.00;99625.50;4993324;28;20434;-45
2022/09/26 12:19:31;;;;;;;32.00;30.37;;;;;;;13.03;100.00;99635.59;4982124;28;20475;-52
2022/09/26 12:25:35;;;;;;;31.07;29.07;;;;;;;13.15;100.00;99633.69;4942708;28;20546;-45
2022/09/26 12:28:14;;;;;;;31.67;30.07;;;;;;;13.08;100.00;99626.88;4983041;28;20442;-47
2022/09/26 12:30:51;;;;;;;31.10;29.60;;;;;;;13.11;100.00;99629.88;4993128;28;20438;-48
2022/09/26 12:34:03;;;;;;;33.23;31.30;;;;;;;13.06;100.00;99636.97;4992976;28;20469;-47
2022/09/26 12:36:46;;;;;;;32.47;30.63;;;;;;;13.01;100.00;99635.03;4975827;28;20466;-44
2022/09/26 12:39:30;;;;;;;31.13;29.50;;;;;;;12.91;100.00;99625.97;4993078;28;20481;-47
2022/09/26 12:42:15;;;;;;;31.70;29.90;;;;;;;12.93;100.00;99624.69;4992899;28;20489;-46
2022/09/26 12:45:05;;;;;;;33.27;31.27;;;;;;;12.96;100.00;99624.19;4982353;28;20537;-44
2022/09/26 12:47:56;;;;;;;32.60;30.70;;;;;;;13.02;100.00;99617.88;4993097;28;21031;-46
2022/09/26 12:50:33;;;;;;;32.13;30.33;;;;;;;13.02;100.00;99619.78;4984114;28;20442;-46
2022/09/26 12:53:28;;;;;;;32.17;30.60;;;;;;;13.01;100.00;99615.47;4992769;28;20461;-44
2022/09/26 12:56:05;;;;;;;30.73;29.30;;;;;;;12.95;100.00;99617.25;4935196;28;20520;-44
2022/09/26 12:58:45;;;;;;;32.10;30.30;;;;;;;12.88;100.00;99613.06;4992607;28;20426;-44
2022/09/26 13:01:29;;;;;;;33.80;31.70;;;;;;;12.86;100.00;99615.19;4992379;28;20482;-45
2022/09/26 13:04:21;;;;;;;33.60;31.80;;;;;;;12.82;100.00;99614.03;4992636;28;21020;-44
2022/09/26 13:07:10;;;;;;;30.70;29.00;;;;;;;12.83;100.00;99610.31;4966829;28;20501;-45
2022/09/26 13:10:09;;;;;;;30.83;29.33;;;;;;;12.81;100.00;99599.84;4992733;28;20441;-48
2022/09/26 13:13:01;;;;;;;30.80;29.30;;;;;;;12.87;100.00;99604.25;4992286;28;20921;-46
2022/09/26 13:15:34;;;;;;;32.80;30.90;;;;;;;12.84;100.00;99604.72;4975226;28;20470;-45
2022/09/26 13:18:08;;;;;;;31.40;29.70;;;;;;;12.87;100.00;99601.59;4992423;28;20438;-44
2022/09/26 13:20:42;;;;;;;30.27;28.77;;;;;;;12.86;100.00;99597.28;4979022;28;21013;-47
2022/09/26 13:23:19;;;;;;;31.23;29.43;;;;;;;12.91;100.00;99601.88;4987395;28;20492;-47
2022/09/26 13:25:51;;;;;;;32.00;30.30;;;;;;;12.92;100.00;99595.50;4977015;28;20539;-44
2022/09/26 13:28:23;;;;;;;30.37;28.87;;;;;;;12.90;100.00;99597.59;4992509;28;20418;-49
2022/09/26 13:30:56;;;;;;;31.10;29.40;;;;;;;12.81;100.00;99596.38;4992146;28;21004;-45
2022/09/26 13:33:33;;;;;;;31.53;29.90;;;;;;;12.75;100.00;99598.13;4992350;28;20873;-46
2022/09/26 13:36:03;;;;;;;30.80;29.10;;;;;;;12.74;100.00;99600.00;4992178;28;20476;-48
2022/09/26 13:38:46;;;;;;;31.20;29.40;;;;;;;12.78;100.00;99585.06;4966393;28;20457;-44
2022/09/26 13:41:28;;;;;;;31.60;29.90;;;;;;;12.68;100.00;99579.53;4991865;28;20489;-49
2022/09/26 13:44:08;;;;;;;31.87;29.93;;;;;;;12.62;100.00;99580.50;4992237;28;20858;-53
2022/09/26 13:46:49;;;;;;;31.23;29.57;;;;;;;12.54;100.00;99578.19;4992140;28;20930;-50
2022/09/26 13:49:30;;;;;;;30.93;29.30;;;;;;;12.51;100.00;99581.34;4970478;28;20473;-44
2022/09/26 13:52:14;;;;;;;31.83;30.10;;;;;;;12.41;100.00;99562.41;4991883;28;20454;-49
2022/09/26 13:55:01;;;;;;;32.03;30.50;;;;;;;12.40;100.00;99576.81;4992053;28;20781;-47
2022/09/26 13:57:45;;;;;;;33.07;31.23;;;;;;;12.36;100.00;99565.00;4992069;28;20913;-47
2022/09/26 14:00:40;;;;;;;32.40;30.27;;;;;;;12.29;100.00;99558.16;4966188;28;21000;-46
2022/09/26 14:03:40;;;;;;;34.17;31.87;;;;;;;12.22;100.00;99566.28;4991782;28;20462;-44
2022/09/26 14:06:32;;;;;;;32.77;30.63;;;;;;;12.31;100.00;99562.19;4992161;28;20445;-45
2022/09/26 14:09:23;;;;;;;34.93;32.70;;;;;;;12.24;100.00;99547.34;4954572;28;20483;-43
2022/09/26 14:12:18;;;;;;;33.40;31.53;;;;;;;12.24;100.00;99544.69;4995451;28;20454;-45
2022/09/26 14:14:51;;;;;;;32.23;30.53;;;;;;;12.22;100.00;99544.91;4995871;28;20434;-47
2022/09/26 14:18:02;;;;;;;34.37;32.27;;;;;;;12.27;100.00;99539.69;4995742;28;20497;-46
2022/09/26 14:20:37;;;;;;;33.67;31.63;;;;;;;12.26;100.00;99532.69;4960075;28;20885;-46
2022/09/26 14:23:04;;;;;;;33.87;31.97;;;;;;;12.37;100.00;99537.19;4989979;28;20488;-49
2022/09/26 14:25:55;;;;;;;33.50;31.70;;;;;;;12.37;100.00;99525.69;4995641;28;20500;-45
2022/09/26 14:28:32;;;;;;;35.37;33.30;;;;;;;12.37;100.00;99520.34;4995779;28;20500;-49
2022/09/26 14:31:16;;;;;;;36.87;34.53;;;;;;;12.40;100.00;99515.34;4969522;28;20527;-45
2022/09/26 14:33:45;;;;;;;34.37;32.33;;;;;;;12.37;100.00;99513.13;4995651;28;20434;-46
2022/09/26 14:36:30;;;;;;;37.60;35.60;;;;;;;12.36;100.00;99500.84;4995478;28;20426;-52
2022/09/26 14:38:58;;;;;;;34.00;32.10;;;;;;;12.28;100.00;99506.53;4995275;28;21000;-44
2022/09/26 14:41:28;;;;;;;35.63;33.33;;;;;;;12.23;100.00;99505.63;4969368;28;20544;-45
2022/09/26 14:44:02;;;;;;;32.83;31.03;;;;;;;12.19;100.00;99498.09;4995425;28;20433;-47
2022/09/26 14:46:34;;;;;;;37.03;34.53;;;;;;;12.13;100.00;99498.22;4995373;28;20442;-47
2022/09/26 14:49:04;;;;;;;34.10;32.20;;;;;;;12.08;100.00;99498.13;4995229;28;20464;-47
2022/09/26 14:51:38;;;;;;;33.83;31.83;;;;;;;12.05;100.00;99490.56;4973807;28;20446;-45
2022/09/26 14:54:18;;;;;;;36.17;34.13;;;;;;;12.05;100.00;99485.22;4995432;28;20857;-45
2022/09/26 14:56:49;;;;;;;32.63;30.83;;;;;;;12.03;100.00;99484.66;4995175;28;20500;-45
2022/09/26 14:59:40;;;;;;;34.53;32.10;;;;;;;11.99;100.00;99487.00;4994413;28;21011;-45
2022/09/26 15:02:23;;;;;;;33.87;31.67;;;;;;;11.94;100.00;99475.38;4978108;28;20477;-49
2022/09/26 15:05:04;;;;;;;33.70;31.60;;;;;;;11.99;100.00;99472.81;4993754;28;20440;-45
2022/09/26 15:07:36;;;;;;;33.27;31.47;;;;;;;12.01;100.00;99463.50;4994822;28;20488;-45
2022/09/26 15:10:17;;;;;;;33.17;31.40;;;;;;;12.05;100.00;99458.50;4994804;28;20430;-51
2022/09/26 15:12:51;;;;;;;32.60;30.63;;;;;;;12.06;100.00;99452.13;4968993;28;20485;-45
2022/09/26 15:15:34;;;;;;;34.40;32.50;;;;;;;12.05;100.00;99445.16;4994654;28;20918;-45
2022/09/26 15:18:07;;;;;;;32.97;31.07;;;;;;;11.99;100.00;99446.91;4963839;28;20454;-48
2022/09/26 15:20:40;;;;;;;33.77;31.43;;;;;;;11.96;100.00;99439.38;4976509;28;20478;-45
2022/09/26 15:23:23;;;;;;;33.27;31.40;;;;;;;11.89;100.00;99438.69;4966720;28;20544;-44
2022/09/26 15:25:54;;;;;;;32.37;30.70;;;;;;;11.85;100.00;99442.91;4994323;28;20500;-47
2022/09/26 15:28:23;;;;;;;32.37;30.57;;;;;;;11.82;100.00;99435.34;4994253;28;20468;-44
2022/09/26 15:31:26;;;;;;;31.83;30.03;;;;;;;11.82;100.00;99432.69;4993987;28;20454;-45
2022/09/26 15:33:59;;;;;;;29.87;28.30;;;;;;;11.79;100.00;99427.81;4968076;28;20461;-50
2022/09/26 15:36:31;;;;;;;29.20;27.90;;;;;;;11.84;100.00;99430.56;4994059;28;21003;-52
2022/09/26 15:39:06;;;;;;;30.33;28.73;;;;;;;11.79;100.00;99427.81;4994050;28;20434;-49
2022/09/26 15:44:24;;;;;;;29.47;28.07;;;;;;;11.73;100.00;99426.09;4968433;28;20462;-48
2022/09/26 15:46:52;;;;;;;29.00;27.60;;;;;;;11.73;100.00;99433.28;4993370;28;20434;-44
2022/09/26 15:49:21;;;;;;;30.00;28.50;;;;;;;11.72;100.00;99423.63;4993845;28;20834;-44
2022/09/26 15:51:53;;;;;;;28.93;27.23;;;;;;;11.66;100.00;99412.81;4993705;28;20454;-51
2022/09/26 15:54:27;;;;;;;29.37;27.90;;;;;;;11.60;100.00;99423.63;4956755;28;20459;-47
2022/09/26 15:56:57;;;;;;;29.37;27.77;;;;;;;11.59;100.00;99405.97;4973105;28;20474;-50
2022/09/26 15:59:30;;;;;;;28.17;26.87;;;;;;;11.60;100.00;99418.28;4974406;28;20442;-47
2022/09/26 16:02:00;;;;;;;28.33;26.97;;;;;;;11.59;100.00;99400.63;4973087;28;21076;-46
2022/09/26 16:04:29;;;;;;;28.80;27.50;;;;;;;11.50;100.00;99396.69;4974352;28;20446;-50
2022/09/26 16:06:59;;;;;;;27.27;26.00;;;;;;;11.49;100.00;99395.09;4973646;28;20471;-46
2022/09/26 16:09:33;;;;;;;28.00;26.70;;;;;;;11.41;100.00;99403.47;4974291;28;20447;-46
2022/09/26 16:12:02;;;;;;;27.63;26.40;;;;;;;11.42;100.00;99397.06;4973833;28;20451;-44
2022/09/26 16:14:36;;;;;;;26.67;25.27;;;;;;;11.37;100.00;99400.47;4974231;28;20427;-46
2022/09/26 16:17:13;;;;;;;27.30;26.10;;;;;;;11.38;100.00;99395.94;4971324;28;20451;-45
2022/09/26 16:19:47;;;;;;;26.80;25.53;;;;;;;11.36;100.00;99398.00;4978441;28;20496;-45
2022/09/26 16:22:35;;;;;;;26.63;25.23;;;;;;;11.33;100.00;99390.47;4984985;28;20481;-45
2022/09/26 16:28:16;;;;;;;26.63;25.43;;;;;;;11.30;100.00;99390.94;5150871;27;20511;-47
2022/09/26 16:30:51;;;;;;;27.87;26.47;;;;;;;11.27;100.00;99392.22;5148111;27;20944;-52
2022/09/26 16:33:31;;;;;;;28.33;26.93;;;;;;;11.27;100.00;99383.41;5151035;27;20484;-46
2022/09/26 16:36:05;;;;;;;29.23;27.83;;;;;;;11.22;100.00;99375.28;5125478;27;20515;-45
2022/09/26 16:38:34;;;;;;;30.37;28.63;;;;;;;11.22;100.00;99373.44;5109467;28;20858;-48
2022/09/26 16:41:07;;;;;;;28.50;27.20;;;;;;;11.19;100.00;99371.25;5109127;28;20522;-45
2022/09/26 16:43:38;;;;;;;28.90;27.40;;;;;;;11.18;100.00;99372.28;5109302;28;20421;-47
2022/09/26 16:46:10;;;;;;;27.10;25.63;;;;;;;11.15;100.00;99356.72;5108504;28;20484;-44
2022/09/26 16:48:41;;;;;;;27.77;26.57;;;;;;;11.17;100.00;99356.50;5109476;28;20437;-44
2022/09/26 16:51:15;;;;;;;26.70;25.40;;;;;;;11.16;100.00;99360.22;5108995;28;20485;-50
2022/09/26 16:53:45;;;;;;;27.23;25.83;;;;;;;11.19;100.00;99362.41;5109179;28;20473;-45
2022/09/26 16:56:15;;;;;;;25.60;24.50;;;;;;;11.18;100.00;99356.25;5108642;28;20457;-51
2022/09/26 16:58:48;;;;;;;26.20;24.90;;;;;;;11.17;100.00;99351.97;5109318;28;20840;-50
2022/09/26 17:04:03;;;;;;;26.37;25.17;;;;;;;11.10;100.00;99349.44;5109011;28;20424;-49
2022/09/26 17:06:32;;;;;;;26.43;25.23;;;;;;;11.13;100.00;99348.16;5108471;28;20496;-52
2022/09/26 17:09:07;;;;;;;28.00;26.70;;;;;;;11.15;100.00;99351.38;5108787;28;21066;-48
2022/09/26 17:11:35;;;;;;;27.47;26.20;;;;;;;11.14;100.00;99359.66;5108744;28;20452;-49
2022/09/26 17:14:04;;;;;;;30.03;28.33;;;;;;;11.14;100.00;99355.09;5108378;28;20425;-50
2022/09/26 17:16:33;;;;;;;27.67;26.37;;;;;;;11.13;100.00;99344.66;5108803;28;20456;-52
2022/09/26 17:19:01;;;;;;;27.53;26.23;;;;;;;11.11;100.00;99343.03;5105395;28;20485;-52
2022/09/26 17:21:28;;;;;;;29.13;27.63;;;;;;;11.10;100.00;99343.28;5106072;28;20795;-49
2022/09/26 17:23:56;;;;;;;27.13;25.73;;;;;;;11.08;100.00;99345.34;5108757;28;20428;-50
2022/09/26 17:26:24;;;;;;;29.07;27.67;;;;;;;11.10;100.00;99345.94;5107988;27;20529;-51
2022/09/26 17:28:56;;;;;;;28.70;27.17;;;;;;;11.07;100.00;99343.75;5108063;28;20991;-52
2022/09/26 17:31:25;;;;;;;26.83;25.63;;;;;;;11.12;100.00;99349.19;5108233;28;20452;-50
2022/09/26 17:33:54;;;;;;;27.93;26.53;;;;;;;11.11;100.00;99344.88;5108695;28;20439;-51
2022/09/26 17:36:24;;;;;;;27.77;26.37;;;;;;;11.10;100.00;99336.09;5107991;27;20489;-49
2022/09/26 17:38:52;;;;;;;27.27;25.97;;;;;;;11.10;100.00;99340.63;5097231;28;20455;-46
2022/09/26 17:41:21;;;;;;;28.83;27.33;;;;;;;11.11;100.00;99335.03;5094466;28;20453;-49
2022/09/26 17:43:58;;;;;;;28.30;26.90;;;;;;;11.10;100.00;99333.44;5094265;28;20421;-48
2022/09/26 17:46:28;;;;;;;29.27;27.87;;;;;;;11.06;100.00;99332.25;5094117;28;20461;-47
2022/09/26 17:48:58;;;;;;;29.13;27.63;;;;;;;11.08;100.00;99335.50;5094596;28;20430;-50
2022/09/26 17:51:25;;;;;;;29.40;27.50;;;;;;;11.08;100.00;99330.16;5094361;28;20453;-51
2022/09/26 17:53:56;;;;;;;28.97;27.53;;;;;;;11.10;100.00;99337.94;5094593;28;20433;-49
2022/09/26 17:56:25;;;;;;;29.73;28.17;;;;;;;11.09;100.00;99331.78;5093994;28;20461;-48
2022/09/26 17:58:53;;;;;;;29.50;27.90;;;;;;;11.10;100.00;99332.63;5085983;28;20453;-53
2022/09/26 18:01:23;;;;;;;29.40;27.80;;;;;;;11.10;100.00;99325.44;5091399;28;20457;-50
2022/09/26 18:03:55;;;;;;;29.03;27.53;;;;;;;11.13;100.00;99328.66;5072322;28;20784;-53
2022/09/26 18:06:26;;;;;;;29.97;28.37;;;;;;;11.11;100.00;99326.22;5073628;28;20478;-49
2022/09/26 18:08:57;;;;;;;29.73;28.13;;;;;;;11.10;100.00;99329.94;5073916;28;20430;-52
2022/09/26 18:11:25;;;;;;;30.20;28.67;;;;;;;11.15;100.00;99330.03;5073832;28;20458;-50
2022/09/26 18:13:55;;;;;;;30.10;28.50;;;;;;;11.16;100.00;99326.34;5073927;28;20436;-51
2022/09/26 18:16:23;;;;;;;31.37;29.03;;;;;;;11.16;100.00;99317.53;5090287;28;20846;-51
2022/09/26 18:18:52;;;;;;;31.07;29.27;;;;;;;11.15;100.00;99319.38;5092034;28;20437;-50
2022/09/26 18:21:23;;;;;;;30.60;28.87;;;;;;;11.17;100.00;99317.28;5089969;28;20527;-51
2022/09/26 18:23:54;;;;;;;30.10;28.50;;;;;;;11.16;100.00;99313.00;5073914;28;20485;-49
2022/09/26 18:26:27;;;;;;;30.37;28.77;;;;;;;11.17;100.00;99311.94;5073070;28;20462;-50
2022/09/26 18:28:55;;;;;;;30.20;28.70;;;;;;;11.19;100.00;99317.88;5073554;28;20496;-49
2022/09/26 18:31:28;;;;;;;30.50;28.90;;;;;;;11.18;100.00;99312.75;5073183;28;20874;-51
2022/09/26 18:33:58;;;;;;;32.40;30.63;;;;;;;11.17;100.00;99306.59;5073472;28;20430;-52
2022/09/26 18:36:28;;;;;;;30.70;28.90;;;;;;;11.21;100.00;99315.75;5073061;28;20458;-47
2022/09/26 18:38:56;;;;;;;31.63;29.80;;;;;;;11.19;100.00;99309.88;5073533;28;20476;-52
2022/09/26 18:41:25;;;;;;;32.03;30.23;;;;;;;11.19;100.00;99307.19;5073174;28;20446;-47
2022/09/26 18:43:55;;;;;;;32.23;30.33;;;;;;;11.20;100.00;99305.34;5073318;28;20487;-47
2022/09/26 18:46:23;;;;;;;33.27;31.07;;;;;;;11.21;100.00;99301.63;5072097;28;20536;-48
2022/09/26 18:48:57;;;;;;;31.87;30.07;;;;;;;11.23;100.00;99300.31;5072972;28;20501;-48
2022/09/26 18:51:26;;;;;;;33.17;31.37;;;;;;;11.26;100.00;99299.84;5072317;28;20446;-50
2022/09/26 18:53:54;;;;;;;35.27;32.83;;;;;;;11.24;100.00;99299.28;5073068;28;20435;-46
2022/09/26 18:59:08;;;;;;;32.97;31.17;;;;;;;11.24;100.00;99301.97;5072763;28;20426;-53
2022/09/26 19:01:39;;;;;;;35.67;33.57;;;;;;;11.25;100.00;99300.09;5072638;28;20456;-53
2022/09/26 19:04:14;;;;;;;34.90;32.77;;;;;;;11.26;100.00;99294.50;5072903;28;20434;-47
2022/09/26 19:06:45;;;;;;;35.83;33.63;;;;;;;11.29;100.00;99291.38;5072270;28;21014;-48
2022/09/26 19:09:14;;;;;;;34.27;32.27;;;;;;;11.30;100.00;99297.53;5072688;28;20478;-50
2022/09/26 19:11:42;;;;;;;33.40;31.37;;;;;;;11.29;100.00;99296.72;5072351;28;20463;-52
2022/09/26 19:14:14;;;;;;;35.23;33.07;;;;;;;11.31;100.00;99301.81;5072709;28;20419;-52
2022/09/26 19:16:42;;;;;;;36.33;34.07;;;;;;;11.32;100.00;99290.91;5072164;28;21054;-52
2022/09/26 19:19:10;;;;;;;35.83;33.67;;;;;;;11.32;100.00;99290.13;5076874;28;20422;-52
2022/09/26 19:21:41;;;;;;;34.87;32.70;;;;;;;11.31;100.00;99293.81;5092335;28;20449;-51
2022/09/26 19:24:19;;;;;;;36.37;34.00;;;;;;;11.32;100.00;99290.91;5092683;28;20433;-52
2022/09/26 19:26:49;;;;;;;35.70;33.60;;;;;;;11.34;100.00;99291.50;5092106;28;20461;-46
2022/09/26 19:29:27;;;;;;;36.33;33.83;;;;;;;11.33;100.00;99287.19;5092554;28;20465;-52
2022/09/26 19:31:55;;;;;;;36.23;33.70;;;;;;;11.35;100.00;99295.78;5092211;28;20985;-50
2022/09/26 19:34:23;;;;;;;35.40;33.30;;;;;;;11.36;100.00;99299.25;5092363;28;20429;-51
2022/09/26 19:36:51;;;;;;;36.03;33.73;;;;;;;11.38;100.00;99291.84;5092013;28;20473;-51
2022/09/26 19:39:20;;;;;;;36.90;34.60;;;;;;;11.36;100.00;99297.41;5092586;28;20429;-53
2022/09/26 19:41:47;;;;;;;35.07;32.73;;;;;;;11.38;100.00;99287.28;5092151;28;20506;-50
2022/09/26 19:44:15;;;;;;;37.27;34.87;;;;;;;11.38;100.00;99292.63;5092196;28;20433;-52
2022/09/26 19:46:46;;;;;;;36.37;33.87;;;;;;;11.38;100.00;99281.94;5091667;28;20556;-51
2022/09/26 19:49:17;;;;;;;36.40;34.17;;;;;;;11.40;100.00;99290.56;5092418;28;20473;-52
2022/09/26 19:51:45;;;;;;;37.03;34.57;;;;;;;11.36;100.00;99278.72;5092089;28;20449;-50
2022/09/26 19:54:18;;;;;;;37.83;35.33;;;;;;;11.40;100.00;99282.53;5092259;28;20425;-51
2022/09/26 19:56:47;;;;;;;37.43;35.03;;;;;;;11.38;100.00;99284.63;5091810;28;20461;-51
2022/09/26 19:59:16;;;;;;;39.70;36.97;;;;;;;11.39;100.00;99278.25;5092024;28;20425;-50
2022/09/26 20:01:45;;;;;;;37.50;35.00;;;;;;;11.41;100.00;99281.47;5091520;28;20518;-51
2022/09/26 20:04:15;;;;;;;37.50;35.03;;;;;;;11.42;100.00;99280.44;5092153;28;20432;-49
2022/09/26 20:06:43;;;;;;;38.40;35.80;;;;;;;11.43;100.00;99276.75;5091592;28;20518;-52
2022/09/26 20:09:16;;;;;;;39.93;37.23;;;;;;;11.45;100.00;99282.63;5091939;28;20466;-53
2022/09/26 20:11:45;;;;;;;39.07;36.27;;;;;;;11.45;100.00;99276.47;5091799;28;20586;-47
2022/09/26 20:14:26;;;;;;;38.77;36.27;;;;;;;11.45;100.00;99282.63;5092330;28;20493;-53
2022/09/26 20:16:57;;;;;;;38.00;35.60;;;;;;;11.47;100.00;99277.03;5091586;28;20526;-52
2022/09/26 20:19:33;;;;;;;38.03;35.53;;;;;;;11.46;100.00;99272.78;5086146;28;20444;-48
2022/09/26 20:22:02;;;;;;;39.83;37.17;;;;;;;11.47;100.00;99271.72;5091695;28;20502;-49
2022/09/26 20:24:32;;;;;;;40.87;37.90;;;;;;;11.49;100.00;99272.31;5092121;28;20452;-54
2022/09/26 20:27:02;;;;;;;40.60;37.90;;;;;;;11.47;100.00;99271.72;5091851;28;20502;-48
2022/09/26 20:30:50;;;;;;;40.40;37.50;;;;;;;11.47;100.00;99263.69;5092304;28;20476;-49
2022/09/26 20:32:19;;;;;;;40.50;37.40;;;;;;;11.45;100.00;99263.13;5091769;28;20458;-51
2022/09/26 20:34:47;;;;;;;40.77;37.77;;;;;;;11.43;100.00;99263.38;5091441;28;20499;-51
2022/09/26 20:37:15;;;;;;;40.07;37.17;;;;;;;11.41;100.00;99264.69;5091878;28;20484;-49
2022/09/26 20:39:43;;;;;;;39.83;36.97;;;;;;;11.40;100.00;99253.19;5091859;28;20479;-50
2022/09/26 20:42:17;;;;;;;41.43;38.60;;;;;;;11.38;100.00;99249.91;5091494;28;20510;-49
2022/09/26 20:44:48;;;;;;;41.57;38.87;;;;;;;11.40;100.00;99255.84;5091316;28;20490;-50
2022/09/26 20:47:19;;;;;;;42.57;39.40;;;;;;;11.41;100.00;99257.47;5091520;28;20483;-52
2022/09/26 20:49:52;;;;;;;41.13;38.23;;;;;;;11.41;100.00;99244.09;5091768;28;20522;-49
2022/09/26 20:52:23;;;;;;;42.23;39.27;;;;;;;11.40;100.00;99242.50;5091487;28;20449;-50
2022/09/26 20:54:52;;;;;;;40.70;37.70;;;;;;;11.39;100.00;99226.72;5091316;28;20433;-48
2022/09/26 20:57:21;;;;;;;42.30;39.23;;;;;;;11.38;100.00;99223.22;5091549;28;20429;-54
2022/09/26 20:59:50;;;;;;;43.77;40.63;;;;;;;11.37;100.00;99228.81;5091414;28;20909;-47
2022/09/26 21:02:26;;;;;;;41.00;38.20;;;;;;;11.38;100.00;99219.78;5091126;28;21040;-47